Time;durP1;ratioP1;P1;durP2;ratioP2;P2;SDS_P1;SDS_P2;PMS_P1;PMS_P2;Temp;Humidity;BMP_temperature;BMP_pressure;BME280_temperature;BME280_humidity;BME280_pressure;Samples;Min_cycle;Max_cycle;Signal;HPM_P1;HPM_P2
2023/12/16 00:02:12;;;;;;;20.37;18.77;;;5.90;99.90;;;;;;5001587;28;20443;-77
2023/12/16 00:04:40;;;;;;;19.40;17.93;;;5.90;99.90;;;;;;4999508;28;20207;-77
2023/12/16 00:07:07;;;;;;;19.60;18.20;;;5.90;99.90;;;;;;5006985;28;20651;-78
2023/12/16 00:09:34;;;;;;;19.10;17.53;;;5.90;99.90;;;;;;5001695;28;20228;-77
2023/12/16 00:12:01;;;;;;;21.23;19.53;;;5.90;99.90;;;;;;5020632;28;20200;-77
2023/12/16 00:14:28;;;;;;;19.87;18.37;;;5.90;99.90;;;;;;5003929;28;20229;-77
2023/12/16 00:16:56;;;;;;;19.33;17.80;;;5.90;99.90;;;;;;4993542;28;20683;-77
2023/12/16 00:19:22;;;;;;;19.27;17.80;;;5.90;99.90;;;;;;4988477;28;20259;-77
2023/12/16 00:21:49;;;;;;;19.87;18.27;;;5.90;99.90;;;;;;4996890;28;20733;-77
2023/12/16 00:24:16;;;;;;;19.20;17.80;;;5.90;99.90;;;;;;5014645;28;20245;-77
2023/12/16 00:26:43;;;;;;;19.20;17.60;;;5.90;99.90;;;;;;4990239;28;20211;-77
2023/12/16 00:29:10;;;;;;;19.93;18.43;;;5.90;99.90;;;;;;5019918;28;20226;-77
2023/12/16 00:31:36;;;;;;;20.83;19.23;;;5.90;99.90;;;;;;5004275;28;20207;-77
2023/12/16 00:34:05;;;;;;;19.30;17.90;;;5.90;99.90;;;;;;5017751;28;20261;-77
2023/12/16 00:36:32;;;;;;;20.17;18.57;;;5.90;99.90;;;;;;5022972;28;20195;-77
2023/12/16 00:38:59;;;;;;;20.03;18.43;;;5.90;99.90;;;;;;5022118;28;20757;-77
2023/12/16 00:41:26;;;;;;;20.93;19.33;;;5.90;99.90;;;;;;5014907;28;20297;-78
2023/12/16 00:43:53;;;;;;;21.67;19.97;;;5.90;99.90;;;;;;5018454;28;20199;-78
2023/12/16 00:46:20;;;;;;;19.90;18.40;;;5.90;99.90;;;;;;4996201;28;20215;-77
2023/12/16 00:48:46;;;;;;;21.13;19.40;;;5.90;99.90;;;;;;5003342;28;20211;-76
2023/12/16 00:51:15;;;;;;;19.83;18.23;;;5.80;99.90;;;;;;5013536;28;20188;-78
2023/12/16 00:53:42;;;;;;;20.70;18.77;;;5.80;99.90;;;;;;5000326;28;20194;-77
2023/12/16 00:56:09;;;;;;;21.63;19.93;;;5.80;99.90;;;;;;5014201;28;20257;-77
2023/12/16 00:58:36;;;;;;;19.90;18.40;;;5.80;99.90;;;;;;5007263;28;20202;-78
2023/12/16 01:01:03;;;;;;;20.77;19.17;;;5.80;99.90;;;;;;4995732;28;20225;-77
2023/12/16 01:03:30;;;;;;;20.23;18.73;;;5.80;99.90;;;;;;5003241;28;20596;-77
2023/12/16 01:05:56;;;;;;;20.93;19.27;;;5.80;99.90;;;;;;5021508;28;20239;-77
2023/12/16 01:08:24;;;;;;;19.70;18.33;;;5.80;99.90;;;;;;5013883;28;20542;-77
2023/12/16 01:10:51;;;;;;;21.23;19.53;;;5.80;99.90;;;;;;5017281;28;20242;-77
2023/12/16 01:13:18;;;;;;;20.70;19.00;;;5.80;99.90;;;;;;4995653;28;20205;-77
2023/12/16 01:15:45;;;;;;;20.80;19.20;;;5.80;99.90;;;;;;5017515;28;20233;-77
2023/12/16 01:18:12;;;;;;;21.20;19.40;;;5.80;99.90;;;;;;4997554;28;20590;-77
2023/12/16 01:20:38;;;;;;;20.97;19.37;;;5.80;99.90;;;;;;5006182;28;20602;-77
2023/12/16 01:23:05;;;;;;;22.53;20.63;;;5.80;99.90;;;;;;5003154;28;20207;-77
2023/12/16 01:25:33;;;;;;;19.93;18.33;;;5.80;99.90;;;;;;5015998;28;20203;-77
2023/12/16 01:28:00;;;;;;;20.13;18.63;;;5.80;99.90;;;;;;5004091;28;20199;-77
2023/12/16 01:30:27;;;;;;;20.60;19.07;;;5.80;99.90;;;;;;4995034;28;20226;-77
2023/12/16 01:32:54;;;;;;;20.37;18.87;;;5.80;99.90;;;;;;5017226;28;20255;-77
2023/12/16 01:35:21;;;;;;;21.93;20.23;;;5.80;99.90;;;;;;4999504;28;20190;-78
2023/12/16 01:37:48;;;;;;;21.43;19.63;;;5.80;99.90;;;;;;4991638;28;20231;-77
2023/12/16 01:40:15;;;;;;;20.73;19.03;;;5.80;99.90;;;;;;5010456;28;20229;-77
2023/12/16 01:42:46;;;;;;;21.47;19.77;;;5.80;99.90;;;;;;5001401;28;20202;-77
2023/12/16 01:45:12;;;;;;;20.37;18.87;;;5.80;99.90;;;;;;5002054;28;20749;-77
2023/12/16 01:47:40;;;;;;;20.87;19.37;;;5.70;99.90;;;;;;5013207;28;20206;-77
2023/12/16 01:50:07;;;;;;;20.73;19.23;;;5.70;99.90;;;;;;4998215;28;20269;-78
2023/12/16 01:52:35;;;;;;;19.70;18.23;;;5.70;99.90;;;;;;4995066;28;20203;-77
2023/12/16 01:55:02;;;;;;;21.10;19.50;;;5.70;99.90;;;;;;5018629;28;20201;-77
2023/12/16 01:57:29;;;;;;;20.00;18.50;;;5.70;99.90;;;;;;4995030;28;20209;-77
2023/12/16 01:59:57;;;;;;;20.70;19.00;;;5.70;99.90;;;;;;4994676;28;20239;-77
2023/12/16 02:02:26;;;;;;;19.57;18.17;;;5.70;99.90;;;;;;5003041;28;20274;-77
2023/12/16 02:04:53;;;;;;;19.70;18.23;;;5.70;99.90;;;;;;5016446;28;20276;-77
2023/12/16 02:07:20;;;;;;;20.23;18.63;;;5.80;99.90;;;;;;5011926;28;20222;-77
2023/12/16 02:09:48;;;;;;;19.70;18.20;;;5.70;99.90;;;;;;5000540;28;20217;-77
2023/12/16 02:12:15;;;;;;;20.17;18.57;;;5.70;99.90;;;;;;5001213;28;20198;-77
2023/12/16 02:14:42;;;;;;;20.00;18.60;;;5.60;99.90;;;;;;4998701;28;20202;-78
2023/12/16 02:17:10;;;;;;;20.60;19.03;;;5.60;99.90;;;;;;5015518;28;20324;-77
2023/12/16 02:19:37;;;;;;;21.70;19.67;;;5.50;99.90;;;;;;4997278;28;21183;-77
2023/12/16 02:22:04;;;;;;;20.83;19.33;;;5.50;99.90;;;;;;5016234;28;20650;-77
2023/12/16 02:24:36;;;;;;;21.30;19.73;;;5.40;99.90;;;;;;4999454;28;20198;-77
2023/12/16 02:27:04;;;;;;;22.23;20.50;;;5.40;99.90;;;;;;5018196;28;20612;-77
2023/12/16 02:29:30;;;;;;;21.47;19.77;;;5.40;99.90;;;;;;4993868;28;20214;-77
2023/12/16 02:31:57;;;;;;;22.00;20.20;;;5.30;99.90;;;;;;5012324;28;20203;-77
2023/12/16 02:34:24;;;;;;;21.83;20.13;;;5.30;99.90;;;;;;5015998;28;20221;-77
2023/12/16 02:36:51;;;;;;;20.10;18.60;;;5.30;99.90;;;;;;4996131;28;20200;-77
2023/12/16 02:39:17;;;;;;;20.60;19.13;;;5.30;99.90;;;;;;5014540;28;20221;-77
2023/12/16 02:41:46;;;;;;;20.53;18.93;;;5.30;99.90;;;;;;5017489;28;20703;-77
2023/12/16 02:44:12;;;;;;;19.40;18.00;;;5.30;99.90;;;;;;4994279;28;20222;-77
2023/12/16 02:46:39;;;;;;;19.90;18.40;;;5.30;99.90;;;;;;5018949;28;20201;-77
2023/12/16 02:49:06;;;;;;;20.77;19.07;;;5.30;99.90;;;;;;5001553;28;20228;-77
2023/12/16 02:51:33;;;;;;;20.10;18.47;;;5.30;99.90;;;;;;5016318;28;20191;-77
2023/12/16 02:54:00;;;;;;;20.60;19.10;;;5.30;99.90;;;;;;5015904;28;20338;-77
2023/12/16 02:56:26;;;;;;;21.13;19.63;;;5.40;99.90;;;;;;5015414;28;20225;-77
2023/12/16 02:58:55;;;;;;;21.50;19.63;;;5.40;99.90;;;;;;5020527;28;20674;-77
2023/12/16 03:01:21;;;;;;;20.30;18.73;;;5.40;99.90;;;;;;5004341;28;20661;-77
2023/12/16 03:03:48;;;;;;;21.37;19.67;;;5.40;99.90;;;;;;5015946;28;20194;-77
2023/12/16 03:06:15;;;;;;;21.07;19.47;;;5.40;99.90;;;;;;5005670;28;20219;-77
2023/12/16 03:08:42;;;;;;;21.30;19.50;;;5.40;99.90;;;;;;5019070;28;20250;-77
2023/12/16 03:11:08;;;;;;;21.03;19.43;;;5.40;99.90;;;;;;4997870;28;20257;-77
2023/12/16 03:13:35;;;;;;;21.43;19.83;;;5.40;99.90;;;;;;5020970;28;20285;-77
2023/12/16 03:16:04;;;;;;;21.60;19.90;;;5.40;99.90;;;;;;5015360;28;20201;-77
2023/12/16 03:18:31;;;;;;;21.07;19.37;;;5.40;99.90;;;;;;5014985;28;20230;-77
2023/12/16 03:20:58;;;;;;;19.50;18.20;;;5.40;99.90;;;;;;5014893;28;20218;-77
2023/12/16 03:23:24;;;;;;;20.40;18.90;;;5.40;99.90;;;;;;5019778;28;20221;-77
2023/12/16 03:25:51;;;;;;;19.57;18.13;;;5.40;99.90;;;;;;4999254;28;20202;-77
2023/12/16 03:28:18;;;;;;;20.47;18.93;;;5.40;99.90;;;;;;5017930;28;20249;-77
2023/12/16 03:30:45;;;;;;;20.67;19.07;;;5.40;99.90;;;;;;4996994;28;20313;-77
2023/12/16 03:33:13;;;;;;;19.93;18.43;;;5.40;99.90;;;;;;5015161;28;20206;-77
2023/12/16 03:35:40;;;;;;;19.17;17.77;;;5.40;99.90;;;;;;5001724;28;20198;-77
2023/12/16 03:38:06;;;;;;;19.80;18.40;;;5.40;99.90;;;;;;5019697;28;20224;-77
2023/12/16 03:40:33;;;;;;;19.80;18.30;;;5.40;99.90;;;;;;5020096;28;20597;-77
2023/12/16 03:43:00;;;;;;;19.90;18.40;;;5.30;99.90;;;;;;4993861;28;20708;-77
2023/12/16 03:45:27;;;;;;;18.80;17.50;;;5.30;99.90;;;;;;4995897;28;20637;-77
2023/12/16 03:47:54;;;;;;;19.00;17.70;;;5.30;99.90;;;;;;5002537;28;20237;-78
2023/12/16 03:50:22;;;;;;;19.77;18.37;;;5.20;99.90;;;;;;4989286;28;20223;-77
2023/12/16 03:52:48;;;;;;;20.07;18.47;;;5.20;99.90;;;;;;4997087;28;20251;-77
2023/12/16 03:55:15;;;;;;;19.93;18.37;;;5.20;99.90;;;;;;4996948;28;20308;-77
2023/12/16 03:57:42;;;;;;;19.63;18.23;;;5.20;99.90;;;;;;5021288;28;20207;-77
2023/12/16 04:00:10;;;;;;;19.47;17.97;;;5.20;99.90;;;;;;4993487;28;20614;-77
2023/12/16 04:02:39;;;;;;;18.83;17.43;;;5.10;99.90;;;;;;5016424;28;20315;-77
2023/12/16 04:05:07;;;;;;;19.93;18.53;;;5.10;99.90;;;;;;5018980;28;20203;-76
2023/12/16 04:07:35;;;;;;;19.80;18.30;;;5.10;99.90;;;;;;5029388;28;20219;-77
2023/12/16 04:10:03;;;;;;;19.13;17.80;;;5.10;99.90;;;;;;5013813;28;20221;-77
2023/12/16 04:12:30;;;;;;;20.47;18.77;;;5.10;99.90;;;;;;5028907;28;20216;-77
2023/12/16 04:14:57;;;;;;;19.63;18.13;;;5.10;99.90;;;;;;5004276;28;20198;-76
2023/12/16 04:17:23;;;;;;;17.90;16.60;;;5.10;99.90;;;;;;5021642;28;20365;-76
2023/12/16 04:19:51;;;;;;;18.80;17.40;;;5.20;99.90;;;;;;5000017;28;20272;-76
2023/12/16 04:22:19;;;;;;;18.73;17.33;;;5.20;99.90;;;;;;5013991;28;20716;-77
2023/12/16 04:24:48;;;;;;;19.93;18.53;;;5.10;99.90;;;;;;4993894;28;20663;-82
2023/12/16 04:27:15;;;;;;;19.37;18.00;;;5.10;99.90;;;;;;4996283;28;20292;-79
2023/12/16 04:29:41;;;;;;;20.03;18.53;;;5.10;99.90;;;;;;4993306;28;20244;-78
2023/12/16 04:32:08;;;;;;;19.83;18.23;;;5.10;99.90;;;;;;4996055;28;20198;-77
2023/12/16 04:34:35;;;;;;;20.27;18.77;;;5.00;99.90;;;;;;4995805;28;20203;-77
2023/12/16 04:37:02;;;;;;;19.80;18.40;;;5.00;99.90;;;;;;5013324;28;20208;-78
2023/12/16 04:39:28;;;;;;;19.87;18.47;;;5.00;99.90;;;;;;4995288;28;20237;-78
2023/12/16 04:41:56;;;;;;;20.87;19.27;;;5.00;99.90;;;;;;4995451;28;20234;-77
2023/12/16 04:44:23;;;;;;;20.63;18.93;;;5.00;99.90;;;;;;5013371;28;20700;-77
2023/12/16 04:46:50;;;;;;;20.17;18.57;;;5.00;99.90;;;;;;4995608;28;20697;-77
2023/12/16 04:49:17;;;;;;;19.60;18.17;;;5.00;99.90;;;;;;4995260;28;20219;-77
2023/12/16 04:51:43;;;;;;;20.57;18.97;;;4.90;99.90;;;;;;5012898;28;20241;-77
2023/12/16 04:54:10;;;;;;;20.17;18.67;;;4.90;99.90;;;;;;5001123;28;20232;-77
2023/12/16 04:56:37;;;;;;;20.77;19.23;;;4.90;99.90;;;;;;5002692;28;20260;-77
2023/12/16 04:59:05;;;;;;;20.93;19.43;;;4.80;99.90;;;;;;4995064;28;20280;-77
2023/12/16 05:01:32;;;;;;;19.87;18.37;;;4.70;99.90;;;;;;4995140;28;20313;-77
2023/12/16 05:03:58;;;;;;;20.37;18.80;;;4.60;99.90;;;;;;5005279;28;20674;-77
2023/12/16 05:06:25;;;;;;;20.53;19.03;;;4.60;99.90;;;;;;4995399;28;20205;-78
2023/12/16 05:08:52;;;;;;;20.30;18.90;;;4.60;99.90;;;;;;5012383;28;20194;-75
2023/12/16 05:11:19;;;;;;;19.33;18.03;;;4.60;99.90;;;;;;4994640;28;20202;-77
2023/12/16 05:13:46;;;;;;;20.17;18.67;;;4.60;99.90;;;;;;4993868;28;20197;-77
2023/12/16 05:16:19;;;;;;;20.00;18.47;;;4.50;99.90;;;;;;4994875;28;20315;-77
2023/12/16 05:18:46;;;;;;;20.27;18.77;;;4.50;99.90;;;;;;4994712;28;20202;-76
2023/12/16 05:21:13;;;;;;;19.57;18.07;;;4.50;99.90;;;;;;4995080;28;20745;-77
2023/12/16 05:23:40;;;;;;;20.40;18.83;;;4.50;99.90;;;;;;4993582;28;20200;-78
2023/12/16 05:26:06;;;;;;;20.03;18.53;;;4.50;99.90;;;;;;4994763;28;20195;-76
2023/12/16 05:28:33;;;;;;;20.40;18.90;;;4.50;99.90;;;;;;5019939;28;20259;-77
2023/12/16 05:31:00;;;;;;;19.70;18.30;;;4.40;99.90;;;;;;4998109;28;20269;-76
2023/12/16 05:33:28;;;;;;;20.93;19.43;;;4.40;99.90;;;;;;5012573;28;20678;-76
2023/12/16 05:35:55;;;;;;;20.70;19.30;;;4.40;99.90;;;;;;5011582;28;20202;-77
2023/12/16 05:38:22;;;;;;;19.90;18.53;;;4.40;99.90;;;;;;5002128;28;20193;-75
2023/12/16 05:40:49;;;;;;;19.70;18.30;;;4.40;99.90;;;;;;4989933;28;20288;-75
2023/12/16 05:43:16;;;;;;;21.80;20.10;;;4.40;99.90;;;;;;5018084;28;20217;-77
2023/12/16 05:45:41;;;;;;;20.73;19.27;;;4.40;99.90;;;;;;5012479;28;20677;-77
2023/12/16 05:48:08;;;;;;;22.10;20.20;;;4.40;99.90;;;;;;5017509;28;20199;-77
2023/12/16 05:50:36;;;;;;;20.93;19.50;;;4.30;99.90;;;;;;4996968;28;20213;-78
2023/12/16 05:53:05;;;;;;;22.33;20.60;;;4.30;99.90;;;;;;5012441;28;20200;-76
2023/12/16 05:55:33;;;;;;;22.90;21.20;;;4.30;99.90;;;;;;5011946;28;20209;-76
2023/12/16 05:57:59;;;;;;;23.43;21.63;;;4.30;99.90;;;;;;5012347;28;20252;-77
2023/12/16 06:00:27;;;;;;;23.83;21.93;;;4.30;99.90;;;;;;5012472;28;20263;-77
2023/12/16 06:02:53;;;;;;;23.50;21.70;;;4.20;99.90;;;;;;4994620;28;20217;-78
2023/12/16 06:05:20;;;;;;;23.47;21.47;;;4.20;99.90;;;;;;4995311;28;20225;-77
2023/12/16 06:07:48;;;;;;;21.90;20.20;;;4.20;99.90;;;;;;5000259;28;20207;-77
2023/12/16 06:10:15;;;;;;;21.80;20.10;;;4.20;99.90;;;;;;5016029;28;20216;-77
2023/12/16 06:12:42;;;;;;;20.50;19.10;;;4.20;99.90;;;;;;5014806;28;20205;-76
2023/12/16 06:15:09;;;;;;;20.50;18.93;;;4.20;99.90;;;;;;4995272;28;20205;-77
2023/12/16 06:17:36;;;;;;;19.80;18.40;;;4.10;99.90;;;;;;5002561;28;20257;-78
2023/12/16 06:20:04;;;;;;;20.03;18.63;;;4.10;99.90;;;;;;5020124;28;20295;-77
2023/12/16 06:22:31;;;;;;;19.67;18.17;;;4.10;99.90;;;;;;4999842;28;20724;-77
2023/12/16 06:24:59;;;;;;;19.80;18.50;;;4.10;99.90;;;;;;4995847;28;21014;-77
2023/12/16 06:27:26;;;;;;;20.17;18.83;;;4.10;99.90;;;;;;4997932;28;20468;-76
2023/12/16 06:29:53;;;;;;;18.70;17.50;;;4.10;99.90;;;;;;4998038;28;20218;-78
2023/12/16 06:32:20;;;;;;;19.70;18.10;;;4.10;99.90;;;;;;4992416;28;20204;-77
2023/12/16 06:34:47;;;;;;;19.40;18.00;;;4.10;99.90;;;;;;5014999;28;20743;-81
2023/12/16 06:37:14;;;;;;;19.67;18.27;;;4.10;99.90;;;;;;5024588;28;20205;-80
2023/12/16 06:39:40;;;;;;;19.70;18.20;;;4.10;99.90;;;;;;5015829;28;20224;-80
2023/12/16 06:42:09;;;;;;;18.47;17.17;;;4.10;99.90;;;;;;5005107;28;20225;-80
2023/12/16 06:44:36;;;;;;;17.70;16.50;;;4.20;99.90;;;;;;4997087;28;20265;-82
2023/12/16 06:47:03;;;;;;;18.70;17.50;;;4.20;99.90;;;;;;5021601;28;20193;-79
2023/12/16 06:49:31;;;;;;;19.77;18.33;;;4.20;99.90;;;;;;4997182;28;20249;-78
2023/12/16 06:51:58;;;;;;;19.93;18.43;;;4.20;99.90;;;;;;5031229;28;20743;-78
2023/12/16 06:54:25;;;;;;;19.10;17.80;;;4.20;99.90;;;;;;5004286;28;20192;-78
2023/12/16 06:56:51;;;;;;;19.60;18.30;;;4.20;99.90;;;;;;5022671;28;20269;-78
2023/12/16 06:59:20;;;;;;;19.60;18.27;;;4.10;99.90;;;;;;5011912;28;20236;-78
2023/12/16 07:01:46;;;;;;;19.27;17.90;;;4.10;99.90;;;;;;5006341;28;20205;-77
2023/12/16 07:04:13;;;;;;;19.87;18.40;;;4.10;99.90;;;;;;5022149;28;20271;-78
2023/12/16 07:06:40;;;;;;;19.50;18.20;;;4.00;99.90;;;;;;5029036;28;20664;-77
2023/12/16 07:09:07;;;;;;;20.83;19.33;;;4.00;99.90;;;;;;5005706;28;20220;-77
2023/12/16 07:11:35;;;;;;;20.50;19.10;;;4.00;99.90;;;;;;5008385;28;20303;-77
2023/12/16 07:14:02;;;;;;;19.30;18.00;;;4.00;99.90;;;;;;5020955;28;20193;-80
2023/12/16 07:16:31;;;;;;;20.27;18.87;;;4.00;99.90;;;;;;5007379;28;20202;-81
2023/12/16 07:18:58;;;;;;;19.37;18.07;;;4.00;99.90;;;;;;5020694;28;20212;-81
2023/12/16 07:21:27;;;;;;;20.70;19.13;;;4.10;99.90;;;;;;5015577;28;20365;-80
2023/12/16 07:23:54;;;;;;;21.40;19.80;;;4.10;99.90;;;;;;5000190;28;20217;-80
2023/12/16 07:26:20;;;;;;;20.03;18.73;;;4.10;99.90;;;;;;5026789;28;20192;-79
2023/12/16 07:28:47;;;;;;;20.37;18.70;;;4.10;99.90;;;;;;4998035;28;20681;-79
2023/12/16 07:31:14;;;;;;;20.77;19.27;;;4.00;99.90;;;;;;5002273;28;20292;-79
2023/12/16 07:33:42;;;;;;;20.97;19.50;;;4.10;99.90;;;;;;5023574;28;20701;-79
2023/12/16 07:36:10;;;;;;;20.53;18.83;;;4.00;99.90;;;;;;4995717;28;20465;-79
2023/12/16 07:38:37;;;;;;;20.48;18.98;;;4.10;99.90;;;;;;4999651;28;20445;-78
2023/12/16 07:41:04;;;;;;;21.23;19.73;;;4.10;99.90;;;;;;5013299;28;20201;-82
2023/12/16 07:43:31;;;;;;;21.13;19.47;;;4.10;99.90;;;;;;5010031;28;20312;-82
2023/12/16 07:45:57;;;;;;;20.27;18.77;;;4.20;99.90;;;;;;5005588;28;20200;-78
2023/12/16 07:48:24;;;;;;;19.93;18.63;;;4.20;99.90;;;;;;5002885;28;20445;-78
2023/12/16 07:50:53;;;;;;;19.33;17.93;;;4.30;99.90;;;;;;4998914;28;20218;-78
2023/12/16 07:53:21;;;;;;;18.50;17.20;;;4.30;99.90;;;;;;5014937;28;20200;-78
2023/12/16 07:55:48;;;;;;;18.67;17.37;;;4.30;99.90;;;;;;5017233;28;20201;-78
2023/12/16 07:58:15;;;;;;;18.53;17.33;;;4.40;99.90;;;;;;5005174;28;20692;-80
2023/12/16 08:00:42;;;;;;;18.37;17.07;;;4.40;99.90;;;;;;5024380;28;20258;-80
2023/12/16 08:03:09;;;;;;;19.53;18.13;;;4.30;99.90;;;;;;5019813;28;20205;-84
2023/12/16 08:05:36;;;;;;;19.50;18.10;;;4.40;99.90;;;;;;5005028;28;20256;-80
2023/12/16 08:08:03;;;;;;;19.13;17.90;;;4.40;99.90;;;;;;5016891;28;20616;-80
2023/12/16 08:10:30;;;;;;;19.17;17.87;;;4.40;99.90;;;;;;5024972;28;20292;-79
2023/12/16 08:12:57;;;;;;;19.80;18.47;;;4.40;99.90;;;;;;4998569;28;20227;-79
2023/12/16 08:15:24;;;;;;;19.73;18.33;;;4.40;99.90;;;;;;5004500;28;20201;-80
2023/12/16 08:17:50;;;;;;;20.17;18.87;;;4.40;99.90;;;;;;5017391;28;20206;-80
2023/12/16 08:20:17;;;;;;;19.27;18.07;;;4.40;99.90;;;;;;4996265;28;20224;-77
2023/12/16 08:22:44;;;;;;;19.27;17.97;;;4.50;99.90;;;;;;5008387;28;20208;-78
2023/12/16 08:25:12;;;;;;;18.17;16.97;;;4.50;99.90;;;;;;4997205;28;20804;-79
2023/12/16 08:27:39;;;;;;;17.40;16.30;;;4.60;99.90;;;;;;5018117;28;20236;-78
2023/12/16 08:30:07;;;;;;;18.33;17.03;;;4.60;99.90;;;;;;5019645;28;20265;-85
2023/12/16 08:32:34;;;;;;;17.80;16.70;;;4.70;99.90;;;;;;4993464;28;20682;-78
2023/12/16 08:35:01;;;;;;;17.70;16.60;;;4.70;99.90;;;;;;4994254;28;20309;-81
2023/12/16 08:37:27;;;;;;;17.90;16.70;;;4.80;99.90;;;;;;5008612;28;20214;-80
2023/12/16 08:39:54;;;;;;;17.40;16.20;;;4.80;99.90;;;;;;5005733;28;20257;-80
2023/12/16 08:42:22;;;;;;;18.17;16.87;;;4.80;99.90;;;;;;4997041;28;20679;-81
2023/12/16 08:44:49;;;;;;;17.23;16.13;;;4.80;99.90;;;;;;5018274;28;20209;-84
2023/12/16 08:47:16;;;;;;;17.80;16.60;;;4.90;99.90;;;;;;5003399;28;20201;-83
2023/12/16 08:49:44;;;;;;;17.87;16.67;;;4.90;99.90;;;;;;4999395;28;20234;-77
2023/12/16 08:52:11;;;;;;;18.20;16.87;;;4.90;99.90;;;;;;5011101;28;20196;-78
2023/12/16 08:54:40;;;;;;;18.40;17.20;;;4.90;99.90;;;;;;5022478;28;20185;-77
2023/12/16 08:57:07;;;;;;;17.73;16.63;;;4.90;99.90;;;;;;5021290;28;20277;-77
2023/12/16 08:59:36;;;;;;;17.60;16.50;;;4.90;99.90;;;;;;5026411;28;20651;-77
2023/12/16 09:02:05;;;;;;;18.20;16.90;;;5.00;99.90;;;;;;5012906;28;20208;-77
2023/12/16 09:04:32;;;;;;;18.13;16.93;;;5.00;99.90;;;;;;5003210;28;20224;-77
2023/12/16 09:06:58;;;;;;;18.00;16.80;;;5.10;99.90;;;;;;5007844;28;20666;-77
2023/12/16 09:09:25;;;;;;;18.47;17.23;;;5.10;99.90;;;;;;5009395;28;20651;-77
2023/12/16 09:11:53;;;;;;;17.83;16.63;;;5.20;99.90;;;;;;4999758;28;20220;-77
2023/12/16 09:14:20;;;;;;;18.00;16.70;;;5.30;99.90;;;;;;5020956;28;20203;-77
2023/12/16 09:16:48;;;;;;;18.63;17.23;;;5.30;99.90;;;;;;5016750;28;20231;-77
2023/12/16 09:19:15;;;;;;;18.40;17.10;;;5.40;99.90;;;;;;5039725;28;20251;-78
2023/12/16 09:21:43;;;;;;;19.57;18.20;;;5.50;99.90;;;;;;5002065;28;20208;-77
2023/12/16 09:24:10;;;;;;;18.53;17.23;;;5.40;99.90;;;;;;5000214;28;20225;-77
2023/12/16 09:26:37;;;;;;;18.40;17.10;;;5.40;99.90;;;;;;5021477;28;20559;-77
2023/12/16 09:29:05;;;;;;;18.00;16.80;;;5.50;99.90;;;;;;5019468;28;20223;-78
2023/12/16 09:31:32;;;;;;;18.27;16.97;;;5.50;99.90;;;;;;5006974;28;20207;-77
2023/12/16 09:34:00;;;;;;;17.53;16.33;;;5.50;99.90;;;;;;4999631;28;20690;-77
2023/12/16 09:36:27;;;;;;;17.13;16.03;;;5.60;99.90;;;;;;5023594;28;20731;-77
2023/12/16 09:38:54;;;;;;;17.07;15.97;;;5.70;99.90;;;;;;5017451;28;20761;-77
2023/12/16 09:41:23;;;;;;;17.23;16.03;;;5.80;99.90;;;;;;5017717;28;20205;-77
2023/12/16 09:43:53;;;;;;;16.97;15.77;;;5.90;99.90;;;;;;5018899;28;20222;-76
2023/12/16 09:46:20;;;;;;;17.77;16.57;;;5.90;99.90;;;;;;5012869;28;20200;-77
2023/12/16 09:48:48;;;;;;;17.50;16.37;;;5.90;99.90;;;;;;5008387;28;20201;-77
2023/12/16 09:51:16;;;;;;;17.33;16.10;;;6.00;99.90;;;;;;5018098;28;20222;-77
2023/12/16 09:53:43;;;;;;;16.63;15.43;;;6.00;99.90;;;;;;5019342;28;20198;-76
2023/12/16 09:56:12;;;;;;;16.13;15.03;;;6.00;99.90;;;;;;5001083;28;20230;-77
2023/12/16 09:58:43;;;;;;;16.97;15.77;;;6.10;99.90;;;;;;5016829;28;20211;-77
2023/12/16 10:01:10;;;;;;;17.50;16.20;;;6.10;99.90;;;;;;5019211;28;20282;-77
2023/12/16 10:03:38;;;;;;;17.17;15.87;;;6.20;99.90;;;;;;5000285;28;20304;-77
2023/12/16 10:06:07;;;;;;;17.50;16.20;;;6.30;99.90;;;;;;5016829;28;20204;-77
2023/12/16 10:08:36;;;;;;;16.50;15.40;;;6.30;99.90;;;;;;4997542;28;20588;-77
2023/12/16 10:11:04;;;;;;;17.53;16.10;;;6.40;99.90;;;;;;5016822;28;20733;-77
2023/12/16 10:13:32;;;;;;;16.73;15.53;;;6.40;99.90;;;;;;5013720;28;20249;-77
2023/12/16 10:16:00;;;;;;;16.90;15.70;;;6.50;99.90;;;;;;4996898;28;20227;-77
2023/12/16 10:18:27;;;;;;;16.43;15.30;;;6.50;99.90;;;;;;5017870;28;20208;-77
2023/12/16 10:20:55;;;;;;;17.50;16.10;;;6.60;99.90;;;;;;5002623;28;20254;-77
2023/12/16 10:23:23;;;;;;;17.37;16.07;;;6.70;99.90;;;;;;5015585;28;20566;-77
2023/12/16 10:25:51;;;;;;;17.93;16.50;;;6.80;99.90;;;;;;5017273;28;20254;-77
2023/12/16 10:28:19;;;;;;;17.83;16.40;;;6.80;99.90;;;;;;5018772;28;20260;-78
2023/12/16 10:30:46;;;;;;;17.50;16.10;;;6.90;99.90;;;;;;5000166;28;20766;-77
2023/12/16 10:33:14;;;;;;;16.77;15.57;;;6.90;99.90;;;;;;5016812;28;20254;-78
2023/12/16 10:35:42;;;;;;;17.90;16.50;;;7.00;99.90;;;;;;5015803;28;20200;-78
2023/12/16 10:38:11;;;;;;;16.97;15.57;;;7.00;99.90;;;;;;4996029;28;20207;-78
2023/12/16 10:40:38;;;;;;;16.60;15.40;;;7.10;99.90;;;;;;5018465;28;20307;-78
2023/12/16 10:43:08;;;;;;;16.97;15.67;;;7.10;99.90;;;;;;5013903;28;20251;-77
2023/12/16 10:45:35;;;;;;;17.23;15.83;;;7.10;99.90;;;;;;4999456;28;20299;-78
2023/12/16 10:48:08;;;;;;;16.93;15.50;;;7.20;99.90;;;;;;5000168;28;20239;-77
2023/12/16 10:50:46;;;;;;;16.13;15.03;;;7.20;99.90;;;;;;5019015;28;20335;-81
2023/12/16 10:53:20;;;;;;;16.23;15.03;;;7.20;99.90;;;;;;5017229;28;20193;-78
2023/12/16 10:56:55;;;;;;;15.67;14.63;;;7.20;99.90;;;;;;5012739;28;20665;-85
2023/12/16 10:59:31;;;;;;;15.43;14.43;;;7.20;99.90;;;;;;4974463;28;20231;-81
2023/12/16 11:02:01;;;;;;;15.03;14.03;;;7.20;99.90;;;;;;4991011;28;20623;-81
2023/12/16 11:04:34;;;;;;;14.63;13.63;;;7.20;99.90;;;;;;4999356;28;20228;-80
2023/12/16 11:07:05;;;;;;;14.90;13.80;;;7.20;99.90;;;;;;5001737;28;20207;-78
2023/12/16 11:09:32;;;;;;;15.30;14.30;;;7.20;99.90;;;;;;5002762;28;20233;-82
2023/12/16 11:12:01;;;;;;;15.20;14.10;;;7.10;99.90;;;;;;4997984;28;20746;-80
2023/12/16 11:14:31;;;;;;;15.53;14.53;;;7.20;99.90;;;;;;5022724;28;20247;-81
2023/12/16 11:17:09;;;;;;;14.73;13.83;;;7.30;99.90;;;;;;4998982;28;20203;-82
2023/12/16 11:19:39;;;;;;;15.17;14.17;;;7.40;99.90;;;;;;4993046;28;20271;-79
2023/12/16 11:22:06;;;;;;;15.63;14.63;;;7.60;99.90;;;;;;5016185;28;20199;-82
2023/12/16 11:24:39;;;;;;;15.83;14.70;;;7.60;99.90;;;;;;5021850;28;20212;-82
2023/12/16 11:27:07;;;;;;;15.00;14.00;;;7.80;99.90;;;;;;5007065;28;20193;-84
2023/12/16 11:29:35;;;;;;;14.67;13.77;;;7.80;99.90;;;;;;5003662;28;20711;-82
2023/12/16 11:32:03;;;;;;;14.43;13.53;;;7.80;99.90;;;;;;4999828;28;20228;-81
2023/12/16 11:34:44;;;;;;;13.93;13.00;;;7.80;99.90;;;;;;5008689;28;20652;-83
2023/12/16 11:37:12;;;;;;;14.63;13.63;;;7.80;99.90;;;;;;4998913;28;20208;-83
2023/12/16 11:39:40;;;;;;;14.90;13.97;;;7.70;99.90;;;;;;5014768;28;20216;-83
2023/12/16 11:42:08;;;;;;;14.53;13.63;;;7.60;99.90;;;;;;5011504;28;20207;-83
2023/12/16 11:44:50;;;;;;;15.40;14.33;;;7.50;99.90;;;;;;4999744;28;20263;-83
2023/12/16 11:47:25;;;;;;;15.50;14.50;;;7.40;99.90;;;;;;5002469;28;20208;-81
2023/12/16 11:49:52;;;;;;;14.50;13.60;;;7.40;99.90;;;;;;4993882;28;20227;-84
2023/12/16 11:52:21;;;;;;;15.13;14.13;;;7.40;99.90;;;;;;5020795;28;20203;-85
2023/12/16 11:54:52;;;;;;;14.90;13.90;;;7.40;99.90;;;;;;5004513;28;20199;-80
2023/12/16 11:57:22;;;;;;;15.80;14.80;;;7.40;99.90;;;;;;5001074;28;20285;-80
2023/12/16 11:59:51;;;;;;;15.33;14.40;;;7.30;99.90;;;;;;5006974;28;20234;-78
2023/12/16 12:02:18;;;;;;;15.57;14.57;;;7.20;99.90;;;;;;5016929;28;20227;-83
2023/12/16 12:04:45;;;;;;;14.93;14.03;;;7.30;99.90;;;;;;4998261;28;20224;-82
2023/12/16 12:07:13;;;;;;;15.13;14.10;;;7.30;99.90;;;;;;5013812;28;20677;-80
2023/12/16 12:10:04;;;;;;;14.97;14.07;;;7.30;99.90;;;;;;5015635;28;20711;-81
2023/12/16 12:12:55;;;;;;;;;;;;;;;;;;;;;
2023/12/16 12:15:33;;;;;;;14.97;13.97;;;7.30;99.90;;;;;;5007658;28;20275;-79
2023/12/16 12:18:10;;;;;;;14.40;13.40;;;7.30;99.90;;;;;;5018645;28;20256;-81
2023/12/16 12:23:23;;;;;;;16.00;14.70;;;7.30;99.90;;;;;;4994249;28;20200;-81
2023/12/16 12:26:01;;;;;;;16.27;15.07;;;7.30;99.90;;;;;;5005839;28;20201;-78
2023/12/16 12:28:31;;;;;;;15.30;14.10;;;7.40;99.90;;;;;;4997976;28;20251;-83
2023/12/16 12:31:04;;;;;;;15.10;14.10;;;7.40;99.90;;;;;;5014815;28;20215;-80
2023/12/16 12:33:32;;;;;;;14.70;13.80;;;7.50;99.90;;;;;;5003661;28;20250;-80
2023/12/16 12:36:10;;;;;;;15.30;14.30;;;7.50;99.90;;;;;;5024709;28;20204;-82
2023/12/16 12:42:06;;;;;;;14.73;13.70;;;7.70;99.90;;;;;;5005194;28;20207;-79
2023/12/16 12:44:35;;;;;;;14.30;13.37;;;7.80;99.90;;;;;;5020870;28;20219;-78
2023/12/16 12:47:03;;;;;;;15.87;14.57;;;7.80;99.90;;;;;;5007030;28;20723;-78
2023/12/16 12:49:31;;;;;;;15.87;14.77;;;7.80;99.90;;;;;;4999068;28;20294;-78